Time;durP1;ratioP1;P1;durP2;ratioP2;P2;SDS_P1;SDS_P2;PMS_P1;PMS_P2;Temp;Humidity;BMP_temperature;BMP_pressure;BME280_temperature;BME280_humidity;BME280_pressure;Samples;Min_cycle;Max_cycle;Signal;HPM_P1;HPM_P2
2022/09/16 00:01:19;;;;;;;2.55;0.70;;;;;;;;;;4979111;28;20092;-81
2022/09/16 00:03:44;;;;;;;3.20;0.70;;;;;;;;;;4973819;28;20504;-80
2022/09/16 00:06:21;;;;;;;2.75;0.60;;;;;;;;;;4978726;28;20129;-80
2022/09/16 00:08:50;;;;;;;2.22;0.60;;;;;;;;;;4972341;28;20034;-80
2022/09/16 00:11:16;;;;;;;3.03;0.98;;;;;;;;;;4972065;28;20034;-80
2022/09/16 00:13:41;;;;;;;2.72;0.70;;;;;;;;;;4976710;28;20081;-81
2022/09/16 00:16:13;;;;;;;4.20;1.17;;;;;;;;;;4972618;28;20549;-80
2022/09/16 00:18:38;;;;;;;2.00;0.70;;;;;;;;;;4993364;28;20033;-80
2022/09/16 00:21:09;;;;;;;2.25;0.70;;;;;;;;;;4974233;28;20516;-80
2022/09/16 00:23:36;;;;;;;2.42;0.73;;;;;;;;;;4987830;28;20030;-80
2022/09/16 00:26:01;;;;;;;1.63;0.70;;;;;;;;;;4976243;28;20066;-80
2022/09/16 00:28:27;;;;;;;3.25;0.70;;;;;;;;;;4971595;28;20514;-79
2022/09/16 00:30:52;;;;;;;3.53;0.73;;;;;;;;;;4962472;28;20034;-79
2022/09/16 00:33:19;;;;;;;3.58;0.70;;;;;;;;;;4971659;28;20041;-80
2022/09/16 00:35:45;;;;;;;2.78;0.80;;;;;;;;;;4975342;28;20898;-81
2022/09/16 00:38:10;;;;;;;2.10;0.70;;;;;;;;;;4964606;28;20034;-80
2022/09/16 00:40:44;;;;;;;4.00;0.80;;;;;;;;;;4967888;28;20390;-79
2022/09/16 00:43:13;;;;;;;3.03;0.90;;;;;;;;;;4975897;28;20026;-80
2022/09/16 00:45:38;;;;;;;2.35;0.63;;;;;;;;;;4989614;28;20040;-80
2022/09/16 00:48:06;;;;;;;2.92;1.10;;;;;;;;;;4977048;28;20033;-79
2022/09/16 00:50:48;;;;;;;2.65;0.80;;;;;;;;;;4967167;28;20081;-79
2022/09/16 00:53:20;;;;;;;4.00;0.70;;;;;;;;;;4982470;28;20049;-79
2022/09/16 00:55:45;;;;;;;5.55;1.10;;;;;;;;;;4989548;28;20038;-78
2022/09/16 00:58:34;;;;;;;4.13;0.70;;;;;;;;;;4977142;28;20507;-80
2022/09/16 01:01:00;;;;;;;3.72;0.75;;;;;;;;;;4974917;28;20535;-81
2022/09/16 01:03:27;;;;;;;4.88;1.00;;;;;;;;;;4980132;28;20038;-79
2022/09/16 01:05:53;;;;;;;3.65;1.05;;;;;;;;;;4983656;28;20041;-80
2022/09/16 01:08:18;;;;;;;3.58;0.95;;;;;;;;;;4980251;28;20049;-80
2022/09/16 01:10:43;;;;;;;2.55;0.80;;;;;;;;;;4977389;28;20046;-80
2022/09/16 01:13:11;;;;;;;2.55;0.80;;;;;;;;;;4980907;28;20033;-79
2022/09/16 01:15:51;;;;;;;4.25;0.93;;;;;;;;;;4977005;28;20049;-80
2022/09/16 01:18:38;;;;;;;6.13;1.10;;;;;;;;;;4992885;28;20037;-81
2022/09/16 01:21:25;;;;;;;5.88;1.48;;;;;;;;;;4989926;28;20392;-79
2022/09/16 01:23:57;;;;;;;2.90;0.88;;;;;;;;;;4989513;28;20041;-80
2022/09/16 01:26:31;;;;;;;3.03;0.88;;;;;;;;;;5011411;28;20053;-80
2022/09/16 01:29:24;;;;;;;4.05;1.17;;;;;;;;;;5010821;28;20057;-80
2022/09/16 01:32:14;;;;;;;4.00;1.17;;;;;;;;;;5004500;28;20489;-80
2022/09/16 01:35:03;;;;;;;3.53;0.80;;;;;;;;;;4991413;28;20048;-80
2022/09/16 01:37:50;;;;;;;3.28;1.10;;;;;;;;;;5006933;28;20033;-78
2022/09/16 01:40:36;;;;;;;3.37;0.90;;;;;;;;;;4999294;28;20038;-79
2022/09/16 01:43:21;;;;;;;3.17;0.90;;;;;;;;;;4992530;28;20038;-79
2022/09/16 01:46:02;;;;;;;3.85;1.10;;;;;;;;;;4979995;28;20061;-80
2022/09/16 01:48:38;;;;;;;6.00;1.10;;;;;;;;;;4978750;28;20037;-80
2022/09/16 01:51:03;;;;;;;5.50;1.75;;;;;;;;;;4990890;28;20041;-79
2022/09/16 01:53:35;;;;;;;6.45;1.20;;;;;;;;;;4991540;28;20531;-80
2022/09/16 01:56:12;;;;;;;2.88;0.82;;;;;;;;;;4985934;28;20110;-81
2022/09/16 01:58:45;;;;;;;3.65;0.90;;;;;;;;;;4983520;28;20480;-80
2022/09/16 02:01:17;;;;;;;4.18;1.70;;;;;;;;;;4978113;28;20049;-80
2022/09/16 02:03:47;;;;;;;6.50;0.98;;;;;;;;;;4975651;28;20497;-80
2022/09/16 02:06:18;;;;;;;2.85;0.90;;;;;;;;;;4993593;28;20076;-80
2022/09/16 02:09:04;;;;;;;4.13;1.20;;;;;;;;;;4979243;28;20030;-81
2022/09/16 02:11:30;;;;;;;2.90;0.93;;;;;;;;;;4974189;28;20046;-79
2022/09/16 02:14:05;;;;;;;5.75;1.10;;;;;;;;;;4981071;28;20440;-79
2022/09/16 02:16:37;;;;;;;2.15;1.00;;;;;;;;;;4994728;28;20046;-79
2022/09/16 02:19:09;;;;;;;2.75;0.90;;;;;;;;;;4978507;28;20030;-80
2022/09/16 02:21:36;;;;;;;3.95;1.00;;;;;;;;;;4976039;28;20619;-79
2022/09/16 02:24:04;;;;;;;3.92;1.20;;;;;;;;;;4994888;28;20481;-79
2022/09/16 02:26:32;;;;;;;;;;;;;;;;;;4975436;28;20040;-80
2022/09/16 02:28:59;;;;;;;4.50;1.23;;;;;;;;;;4981598;28;19924;-79
2022/09/16 02:31:29;;;;;;;3.72;1.10;;;;;;;;;;4964382;28;20401;-80
2022/09/16 02:34:05;;;;;;;4.68;1.58;;;;;;;;;;4975017;28;20026;-79
2022/09/16 02:36:32;;;;;;;8.27;1.60;;;;;;;;;;4990625;28;20038;-80
2022/09/16 02:39:08;;;;;;;5.57;1.30;;;;;;;;;;4978544;28;20394;-79
2022/09/16 02:41:35;;;;;;;4.60;1.30;;;;;;;;;;4975312;28;21201;-80
2022/09/16 02:44:01;;;;;;;7.77;1.60;;;;;;;;;;4982008;28;20099;-81
2022/09/16 02:46:35;;;;;;;4.18;1.40;;;;;;;;;;4978402;28;20362;-80
2022/09/16 02:49:41;;;;;;;5.78;1.10;;;;;;;;;;5010422;28;20048;-79
2022/09/16 02:52:29;;;;;;;5.90;1.25;;;;;;;;;;4978784;28;20037;-79
2022/09/16 02:54:55;;;;;;;;;;;;;;;;;;5011825;28;20400;-79
2022/09/16 02:57:21;;;;;;;4.32;1.20;;;;;;;;;;4973315;28;19934;-80
2022/09/16 02:59:46;;;;;;;5.15;1.45;;;;;;;;;;4994651;28;20042;-80
2022/09/16 03:02:12;;;;;;;4.35;1.40;;;;;;;;;;4981727;28;20065;-80
2022/09/16 03:04:37;;;;;;;4.43;1.20;;;;;;;;;;4978925;28;20038;-80
2022/09/16 03:07:05;;;;;;;3.80;1.10;;;;;;;;;;4974289;28;20046;-80
2022/09/16 03:09:34;;;;;;;5.80;1.33;;;;;;;;;;4954044;28;20065;-80
2022/09/16 03:12:17;;;;;;;5.47;1.40;;;;;;;;;;4992842;28;20034;-80
2022/09/16 03:15:11;;;;;;;4.68;1.23;;;;;;;;;;4995369;28;20041;-81
2022/09/16 03:17:39;;;;;;;4.22;1.33;;;;;;;;;;4993321;28;20366;-79
2022/09/16 03:20:31;;;;;;;3.22;1.23;;;;;;;;;;5006812;28;20098;-80
2022/09/16 03:23:34;;;;;;;4.53;1.42;;;;;;;;;;4971274;28;20042;-81
2022/09/16 03:26:20;;;;;;;6.13;1.55;;;;;;;;;;4987955;28;20505;-80
2022/09/16 03:28:48;;;;;;;6.75;1.65;;;;;;;;;;4988475;28;20044;-80
2022/09/16 03:31:22;;;;;;;5.95;1.88;;;;;;;;;;4991477;28;20504;-81
2022/09/16 03:33:54;;;;;;;3.65;1.58;;;;;;;;;;5008722;28;20037;-80
2022/09/16 03:36:24;;;;;;;4.93;1.33;;;;;;;;;;5002138;28;20042;-80
2022/09/16 03:38:51;;;;;;;7.72;1.90;;;;;;;;;;4979136;28;20037;-79
2022/09/16 03:41:16;;;;;;;6.15;1.98;;;;;;;;;;4989016;28;20037;-81
2022/09/16 03:43:56;;;;;;;4.05;1.42;;;;;;;;;;4985374;28;20412;-79
2022/09/16 03:46:21;;;;;;;4.68;1.40;;;;;;;;;;4965185;28;20978;-80
2022/09/16 03:48:47;;;;;;;3.72;1.30;;;;;;;;;;4980543;28;20041;-80
2022/09/16 03:51:13;;;;;;;6.35;1.52;;;;;;;;;;4992326;28;20037;-80
2022/09/16 03:53:39;;;;;;;6.85;1.70;;;;;;;;;;4974743;28;20025;-80
2022/09/16 03:56:04;;;;;;;8.30;1.60;;;;;;;;;;4975556;28;20049;-79
2022/09/16 03:58:30;;;;;;;6.30;1.90;;;;;;;;;;4992864;28;20057;-80
2022/09/16 04:00:57;;;;;;;4.50;1.70;;;;;;;;;;4973955;28;20160;-79
2022/09/16 04:03:22;;;;;;;4.03;1.33;;;;;;;;;;4985803;28;20050;-80
2022/09/16 04:05:54;;;;;;;5.55;1.73;;;;;;;;;;4993091;28;20049;-80
2022/09/16 04:08:20;;;;;;;4.57;1.90;;;;;;;;;;4987184;28;20383;-79
2022/09/16 04:11:01;;;;;;;7.03;1.88;;;;;;;;;;4990056;28;20030;-80
2022/09/16 04:13:30;;;;;;;6.35;1.77;;;;;;;;;;4965450;28;20169;-80
2022/09/16 04:15:56;;;;;;;6.40;2.00;;;;;;;;;;4972342;28;20034;-79
2022/09/16 04:18:21;;;;;;;4.22;1.80;;;;;;;;;;4974116;28;20518;-79
2022/09/16 04:20:47;;;;;;;5.45;1.80;;;;;;;;;;4992158;28;20033;-79
2022/09/16 04:23:12;;;;;;;6.53;2.00;;;;;;;;;;4986136;28;20046;-79
2022/09/16 04:25:39;;;;;;;5.00;1.77;;;;;;;;;;4975536;28;20038;-79
2022/09/16 04:28:05;;;;;;;6.63;1.70;;;;;;;;;;4973809;28;20038;-86
2022/09/16 04:30:30;;;;;;;5.85;1.88;;;;;;;;;;4974504;28;20417;-85
2022/09/16 04:32:56;;;;;;;4.75;1.85;;;;;;;;;;4973884;28;20038;-85
2022/09/16 04:35:22;;;;;;;4.72;1.55;;;;;;;;;;4974719;28;20034;-85
2022/09/16 04:37:48;;;;;;;5.10;1.73;;;;;;;;;;4990681;28;20041;-85
2022/09/16 04:40:13;;;;;;;5.50;1.52;;;;;;;;;;4983643;28;20108;-85
2022/09/16 04:42:38;;;;;;;4.45;1.90;;;;;;;;;;4975832;28;20046;-84
2022/09/16 04:45:07;;;;;;;4.55;1.88;;;;;;;;;;4973267;28;20042;-85
2022/09/16 04:47:33;;;;;;;6.45;1.75;;;;;;;;;;4990024;28;20038;-85
2022/09/16 04:49:58;;;;;;;5.47;1.50;;;;;;;;;;4986298;28;20042;-85
2022/09/16 04:52:23;;;;;;;4.35;1.75;;;;;;;;;;4972106;28;20041;-84
2022/09/16 04:54:49;;;;;;;5.28;1.50;;;;;;;;;;4975068;28;20066;-84
2022/09/16 04:57:14;;;;;;;4.53;1.45;;;;;;;;;;4968809;28;20042;-89
2022/09/16 04:59:39;;;;;;;6.25;1.60;;;;;;;;;;4976949;28;20033;-85
2022/09/16 05:02:05;;;;;;;7.65;1.55;;;;;;;;;;4977213;28;20053;-84
2022/09/16 05:04:30;;;;;;;5.45;1.40;;;;;;;;;;4994871;28;20058;-86
2022/09/16 05:06:58;;;;;;;9.07;1.50;;;;;;;;;;4976173;28;20128;-84
2022/09/16 05:09:23;;;;;;;;;;;;;;;;;;4992958;28;20041;-83
2022/09/16 05:11:49;;;;;;;5.43;1.50;;;;;;;;;;4983449;28;19917;-85
2022/09/16 05:14:16;;;;;;;5.57;1.30;;;;;;;;;;4998829;28;20387;-80
2022/09/16 05:16:42;;;;;;;6.00;1.50;;;;;;;;;;4997673;28;20037;-80
2022/09/16 05:19:10;;;;;;;5.20;1.60;;;;;;;;;;4969401;28;20044;-80
2022/09/16 05:21:36;;;;;;;5.00;1.35;;;;;;;;;;5004643;28;20030;-81
2022/09/16 05:24:06;;;;;;;4.95;1.10;;;;;;;;;;4999807;28;20049;-80
2022/09/16 05:26:36;;;;;;;4.57;1.27;;;;;;;;;;4992740;28;20100;-80
2022/09/16 05:29:04;;;;;;;4.10;1.33;;;;;;;;;;4981451;28;20117;-80
2022/09/16 05:31:32;;;;;;;7.50;1.52;;;;;;;;;;4961151;28;20038;-80
2022/09/16 05:34:04;;;;;;;;;;;;;;;;;;4976610;28;20509;-81
2022/09/16 05:36:33;;;;;;;7.68;1.83;;;;;;;;;;4990211;28;20396;-81
2022/09/16 05:38:59;;;;;;;7.30;1.90;;;;;;;;;;4963745;28;20112;-81
2022/09/16 05:41:25;;;;;;;7.82;1.67;;;;;;;;;;4983484;28;20041;-81
2022/09/16 05:43:51;;;;;;;5.47;1.40;;;;;;;;;;4979163;28;20034;-81
2022/09/16 05:46:19;;;;;;;5.50;1.17;;;;;;;;;;4959920;28;20042;-81
2022/09/16 05:48:46;;;;;;;2.95;1.23;;;;;;;;;;5021711;28;20489;-82
2022/09/16 05:51:14;;;;;;;4.43;1.23;;;;;;;;;;4972938;28;20037;-81
2022/09/16 05:53:40;;;;;;;5.22;1.30;;;;;;;;;;4989499;28;20394;-82
2022/09/16 05:56:11;;;;;;;8.27;1.40;;;;;;;;;;4976017;28;20034;-81
2022/09/16 05:58:37;;;;;;;3.78;1.63;;;;;;;;;;4982806;28;20485;-82
2022/09/16 06:01:07;;;;;;;3.43;1.17;;;;;;;;;;4979108;28;20061;-82
2022/09/16 06:03:33;;;;;;;4.07;1.27;;;;;;;;;;4991421;28;20174;-83
2022/09/16 06:06:04;;;;;;;6.90;1.38;;;;;;;;;;4974437;28;20176;-81
2022/09/16 06:08:31;;;;;;;3.90;1.40;;;;;;;;;;4981211;28;20061;-84
2022/09/16 06:11:00;;;;;;;6.15;1.55;;;;;;;;;;4974583;28;20049;-82
2022/09/16 06:13:28;;;;;;;3.42;1.38;;;;;;;;;;4974696;28;20045;-83
2022/09/16 06:15:53;;;;;;;;;;;;;;;;;;4973132;28;20073;-84
2022/09/16 06:18:20;;;;;;;3.67;1.10;;;;;;;;;;4975811;28;19921;-83
2022/09/16 06:20:46;;;;;;;5.15;1.38;;;;;;;;;;4996205;28;20501;-84
2022/09/16 06:23:12;;;;;;;4.80;1.48;;;;;;;;;;4970799;28;20037;-84
2022/09/16 06:25:37;;;;;;;4.50;1.25;;;;;;;;;;4987612;28;20171;-86
2022/09/16 06:28:03;;;;;;;12.02;1.67;;;;;;;;;;4975861;28;20117;-84
2022/09/16 06:30:32;;;;;;;6.88;1.40;;;;;;;;;;4990358;28;20600;-83
2022/09/16 06:32:57;;;;;;;5.75;1.13;;;;;;;;;;4977637;28;20038;-82
2022/09/16 06:35:25;;;;;;;3.80;0.95;;;;;;;;;;4973329;28;20042;-86
2022/09/16 06:37:50;;;;;;;;;;;;;;;;;;4975986;28;20039;-85
2022/09/16 06:40:16;;;;;;;2.08;0.90;;;;;;;;;;4978355;28;19920;-85
2022/09/16 06:42:41;;;;;;;3.85;1.25;;;;;;;;;;4970130;28;20037;-84
2022/09/16 06:45:10;;;;;;;5.90;1.48;;;;;;;;;;4975889;28;20493;-87
2022/09/16 06:47:38;;;;;;;5.95;1.45;;;;;;;;;;4976951;28;21273;-83
2022/09/16 06:50:04;;;;;;;6.25;1.45;;;;;;;;;;4988407;28;22178;-84
2022/09/16 06:52:30;;;;;;;4.63;1.23;;;;;;;;;;4976719;28;20038;-84
2022/09/16 06:54:56;;;;;;;6.53;2.17;;;;;;;;;;4987620;28;20045;-83
2022/09/16 06:57:24;;;;;;;5.70;1.33;;;;;;;;;;4970038;28;20037;-83
2022/09/16 06:59:50;;;;;;;7.20;1.73;;;;;;;;;;4977965;28;20030;-84
2022/09/16 07:02:15;;;;;;;3.70;1.10;;;;;;;;;;4989731;28;20033;-83
2022/09/16 07:04:41;;;;;;;7.70;1.60;;;;;;;;;;4970731;28;20088;-82
2022/09/16 07:07:07;;;;;;;3.58;1.10;;;;;;;;;;4987302;28;20038;-84
2022/09/16 07:09:32;;;;;;;8.95;1.30;;;;;;;;;;4973548;28;20535;-81
2022/09/16 07:11:58;;;;;;;5.93;1.30;;;;;;;;;;4989709;28;20040;-83
2022/09/16 07:14:24;;;;;;;5.57;1.27;;;;;;;;;;4990596;28;20434;-84
2022/09/16 07:16:49;;;;;;;5.50;1.27;;;;;;;;;;4985371;28;20418;-84
2022/09/16 07:19:17;;;;;;;5.00;1.13;;;;;;;;;;4969873;28;20117;-83
2022/09/16 07:21:43;;;;;;;4.22;1.27;;;;;;;;;;4973162;28;20035;-84
2022/09/16 07:24:11;;;;;;;3.88;1.27;;;;;;;;;;4973603;28;20551;-82
2022/09/16 07:26:38;;;;;;;4.50;1.05;;;;;;;;;;4976735;28;20045;-84
2022/09/16 07:29:05;;;;;;;6.13;1.17;;;;;;;;;;4977345;28;20096;-84
2022/09/16 07:31:34;;;;;;;2.97;0.85;;;;;;;;;;4974980;28;20073;-84
2022/09/16 07:34:00;;;;;;;4.72;1.00;;;;;;;;;;4987231;28;20072;-84
2022/09/16 07:36:28;;;;;;;4.22;1.13;;;;;;;;;;4976278;28;20046;-82
2022/09/16 07:38:57;;;;;;;5.10;1.35;;;;;;;;;;4971321;28;20041;-82
2022/09/16 07:41:25;;;;;;;3.17;0.80;;;;;;;;;;4992948;28;20117;-82
2022/09/16 07:43:53;;;;;;;5.45;0.80;;;;;;;;;;4982407;28;20030;-81
2022/09/16 07:46:21;;;;;;;3.65;1.10;;;;;;;;;;4994753;28;20068;-83
2022/09/16 07:48:47;;;;;;;3.53;0.82;;;;;;;;;;4990987;28;20120;-81
2022/09/16 07:51:18;;;;;;;3.00;1.15;;;;;;;;;;4975303;28;20125;-81
2022/09/16 07:53:44;;;;;;;3.95;0.90;;;;;;;;;;4962317;28;20085;-81
2022/09/16 07:56:15;;;;;;;3.20;0.88;;;;;;;;;;5002763;28;20034;-82
2022/09/16 07:58:42;;;;;;;2.85;0.90;;;;;;;;;;4983542;28;20091;-81
2022/09/16 08:01:08;;;;;;;4.63;0.90;;;;;;;;;;4996976;28;20393;-82
2022/09/16 08:03:37;;;;;;;2.90;0.80;;;;;;;;;;4991931;28;20037;-82
2022/09/16 08:06:09;;;;;;;3.80;1.00;;;;;;;;;;4980961;28;20061;-81
2022/09/16 08:08:34;;;;;;;4.95;1.13;;;;;;;;;;4988255;28;20045;-81
2022/09/16 08:11:00;;;;;;;5.07;0.80;;;;;;;;;;4985626;28;20052;-81
2022/09/16 08:13:28;;;;;;;4.93;1.00;;;;;;;;;;4964367;28;20489;-81
2022/09/16 08:15:54;;;;;;;;;;;;;;;;;;4982634;28;20030;-82
2022/09/16 08:18:21;;;;;;;3.60;1.00;;;;;;;;;;4978730;28;19913;-82
2022/09/16 08:20:46;;;;;;;3.75;1.00;;;;;;;;;;4978082;28;20102;-82
2022/09/16 08:23:13;;;;;;;3.65;0.80;;;;;;;;;;4996290;28;20449;-82
2022/09/16 08:25:39;;;;;;;3.58;1.00;;;;;;;;;;4977960;28;20056;-80
2022/09/16 08:28:04;;;;;;;6.38;1.13;;;;;;;;;;4996354;28;20037;-82
2022/09/16 08:30:32;;;;;;;6.90;1.00;;;;;;;;;;4978008;28;20130;-82
2022/09/16 08:32:59;;;;;;;6.72;1.15;;;;;;;;;;4986578;28;20038;-81
2022/09/16 08:35:25;;;;;;;3.50;1.00;;;;;;;;;;4983395;28;20120;-82
2022/09/16 08:37:51;;;;;;;2.63;0.90;;;;;;;;;;4971603;28;20305;-81
2022/09/16 08:40:20;;;;;;;4.68;1.15;;;;;;;;;;4976279;28;20042;-82
2022/09/16 08:43:23;;;;;;;5.07;0.88;;;;;;;;;;4983593;28;20033;-82
2022/09/16 08:46:38;;;;;;;2.92;1.02;;;;;;;;;;4960215;28;20026;-82
2022/09/16 08:49:32;;;;;;;6.65;1.13;;;;;;;;;;5002005;28;20449;-82
2022/09/16 08:51:58;;;;;;;5.07;0.90;;;;;;;;;;4977972;28;20489;-82
2022/09/16 08:54:36;;;;;;;4.23;1.00;;;;;;;;;;5010204;28;20037;-82
2022/09/16 08:57:05;;;;;;;4.47;0.98;;;;;;;;;;4967777;28;20034;-82
2022/09/16 08:59:36;;;;;;;3.67;1.00;;;;;;;;;;4983080;28;20034;-84
2022/09/16 09:02:20;;;;;;;4.22;0.90;;;;;;;;;;4977529;28;20467;-82
2022/09/16 09:04:45;;;;;;;4.07;0.80;;;;;;;;;;4990978;28;20048;-83
2022/09/16 09:07:54;;;;;;;4.45;0.90;;;;;;;;;;4969630;28;20034;-83
2022/09/16 09:11:08;;;;;;;3.17;0.80;;;;;;;;;;4968462;28;20405;-81
2022/09/16 09:13:48;;;;;;;4.32;0.82;;;;;;;;;;4925208;28;20081;-82
2022/09/16 09:16:35;;;;;;;5.57;0.95;;;;;;;;;;4932423;29;20054;-82
2022/09/16 09:19:48;;;;;;;3.88;0.80;;;;;;;;;;4975142;28;20038;-83
2022/09/16 09:22:13;;;;;;;5.90;0.80;;;;;;;;;;5000769;28;20070;-82
2022/09/16 09:25:00;;;;;;;3.95;0.80;;;;;;;;;;4990810;28;20568;-83
2022/09/16 09:27:42;;;;;;;4.90;0.70;;;;;;;;;;4995280;28;20061;-82
2022/09/16 09:30:20;;;;;;;3.33;0.65;;;;;;;;;;4986621;28;20153;-81
2022/09/16 09:33:23;;;;;;;6.80;0.95;;;;;;;;;;4976483;28;20122;-81
2022/09/16 09:35:56;;;;;;;2.72;0.60;;;;;;;;;;5008246;28;20049;-80
2022/09/16 09:38:55;;;;;;;7.47;0.80;;;;;;;;;;4994756;28;20042;-81
2022/09/16 09:42:06;;;;;;;3.92;0.77;;;;;;;;;;4999150;28;20092;-81
2022/09/16 09:45:04;;;;;;;4.45;1.10;;;;;;;;;;4921159;29;20051;-81
2022/09/16 09:47:40;;;;;;;3.63;1.13;;;;;;;;;;4897022;29;20113;-81
2022/09/16 09:50:34;;;;;;;4.30;0.60;;;;;;;;;;4931591;29;20066;-81
2022/09/16 09:53:18;;;;;;;5.32;0.70;;;;;;;;;;4901183;29;20091;-80
2022/09/16 09:55:44;;;;;;;4.18;0.93;;;;;;;;;;4899652;29;20519;-81
2022/09/16 09:58:15;;;;;;;5.25;0.90;;;;;;;;;;4927898;29;20094;-81
2022/09/16 10:00:41;;;;;;;5.10;0.85;;;;;;;;;;4933224;29;20111;-81
2022/09/16 10:03:16;;;;;;;7.32;1.00;;;;;;;;;;4912854;29;20118;-80
2022/09/16 10:05:45;;;;;;;4.25;0.93;;;;;;;;;;4925416;29;20040;-82
2022/09/16 10:08:34;;;;;;;7.80;0.85;;;;;;;;;;4923408;29;20039;-82
2022/09/16 10:11:02;;;;;;;4.85;0.60;;;;;;;;;;4921961;28;20581;-81
2022/09/16 10:13:32;;;;;;;4.85;0.80;;;;;;;;;;4928534;28;20419;-82
2022/09/16 10:16:36;;;;;;;4.85;0.77;;;;;;;;;;4927395;29;20458;-82
2022/09/16 10:19:04;;;;;;;5.80;0.75;;;;;;;;;;4912072;29;20043;-84
2022/09/16 10:21:41;;;;;;;4.80;0.80;;;;;;;;;;4957481;28;20030;-86
2022/09/16 10:24:27;;;;;;;7.90;1.45;;;;;;;;;;4966810;28;20109;-88
2022/09/16 10:26:52;;;;;;;5.88;0.73;;;;;;;;;;5006240;28;20041;-88
2022/09/16 10:29:20;;;;;;;8.57;0.85;;;;;;;;;;4972285;28;20038;-89
2022/09/16 10:31:46;;;;;;;3.38;0.60;;;;;;;;;;4975851;28;20033;-85
2022/09/16 10:34:35;;;;;;;5.18;0.70;;;;;;;;;;4989665;28;20053;-85
2022/09/16 10:37:16;;;;;;;4.40;1.02;;;;;;;;;;4973202;28;20045;-86
2022/09/16 10:39:54;;;;;;;4.15;0.68;;;;;;;;;;4977156;28;20065;-86
2022/09/16 10:42:25;;;;;;;5.20;0.80;;;;;;;;;;4991025;28;20038;-86
2022/09/16 10:44:52;;;;;;;3.45;0.60;;;;;;;;;;4975461;28;20034;-86
2022/09/16 10:47:22;;;;;;;;;;;;;;;;;;4988465;28;20033;-87
2022/09/16 10:49:55;;;;;;;3.47;0.65;;;;;;;;;;4986652;28;19913;-86
2022/09/16 10:52:25;;;;;;;5.10;0.73;;;;;;;;;;4972481;28;20855;-86
2022/09/16 10:54:52;;;;;;;3.50;0.68;;;;;;;;;;4969390;28;20046;-86
2022/09/16 10:57:22;;;;;;;3.55;0.60;;;;;;;;;;4972311;28;20042;-86
2022/09/16 11:00:21;;;;;;;3.30;0.60;;;;;;;;;;4978475;28;20041;-85
2022/09/16 11:03:05;;;;;;;4.00;0.70;;;;;;;;;;4986611;28;20405;-87
2022/09/16 11:05:39;;;;;;;4.10;0.60;;;;;;;;;;4983368;28;20044;-87
2022/09/16 11:08:24;;;;;;;4.63;0.60;;;;;;;;;;4962637;28;20046;-85
2022/09/16 11:11:11;;;;;;;3.97;0.68;;;;;;;;;;5000435;28;20038;-85
2022/09/16 11:14:01;;;;;;;2.75;0.60;;;;;;;;;;4943442;28;20678;-86
2022/09/16 11:17:00;;;;;;;2.83;0.60;;;;;;;;;;4974346;28;20046;-88
2022/09/16 11:19:38;;;;;;;4.05;0.70;;;;;;;;;;4996988;28;20148;-87
2022/09/16 11:22:12;;;;;;;3.65;0.50;;;;;;;;;;4989115;28;20073;-86
2022/09/16 11:25:14;;;;;;;6.68;0.70;;;;;;;;;;5005127;28;20113;-87
2022/09/16 11:27:58;;;;;;;2.85;0.60;;;;;;;;;;4920843;28;20048;-86
2022/09/16 11:30:24;;;;;;;2.75;0.55;;;;;;;;;;5004986;28;20092;-87
2022/09/16 11:33:40;;;;;;;1.58;0.40;;;;;;;;;;4975888;28;20494;-86
2022/09/16 11:36:33;;;;;;;4.03;0.55;;;;;;;;;;4943398;28;20128;-85
2022/09/16 11:39:22;;;;;;;4.78;0.60;;;;;;;;;;4987999;28;20042;-86
2022/09/16 11:42:29;;;;;;;3.28;0.50;;;;;;;;;;4974387;28;20524;-86
2022/09/16 11:45:01;;;;;;;;;;;;;;;;;;4979180;28;20096;-85
2022/09/16 11:47:45;;;;;;;3.75;0.40;;;;;;;;;;4970241;28;20120;-85
2022/09/16 11:50:19;;;;;;;4.47;0.63;;;;;;;;;;4963977;28;20103;-86
2022/09/16 11:53:00;;;;;;;3.25;0.43;;;;;;;;;;5004960;28;20196;-86
2022/09/16 11:55:45;;;;;;;2.80;0.60;;;;;;;;;;5006657;28;20060;-84
2022/09/16 11:58:49;;;;;;;7.15;0.70;;;;;;;;;;4978918;28;20034;-86
2022/09/16 12:01:24;;;;;;;3.10;0.47;;;;;;;;;;4992921;28;20134;-84
2022/09/16 12:04:25;;;;;;;3.55;0.50;;;;;;;;;;5004918;28;20029;-86
2022/09/16 12:06:51;;;;;;;2.70;0.40;;;;;;;;;;4978547;28;20037;-86
2022/09/16 12:09:30;;;;;;;9.07;1.20;;;;;;;;;;5004672;28;20396;-84
2022/09/16 12:12:05;;;;;;;4.47;0.50;;;;;;;;;;4987106;28;20770;-87
2022/09/16 12:14:36;;;;;;;3.85;0.50;;;;;;;;;;4991535;28;20038;-87
2022/09/16 12:17:19;;;;;;;3.40;0.47;;;;;;;;;;4987455;28;20074;-85
2022/09/16 12:20:02;;;;;;;2.65;0.52;;;;;;;;;;4970724;28;20029;-90
2022/09/16 12:22:41;;;;;;;2.22;0.50;;;;;;;;;;4971637;28;20547;-80
2022/09/16 12:25:14;;;;;;;4.70;0.73;;;;;;;;;;4975939;28;20029;-80
2022/09/16 12:28:28;;;;;;;2.45;0.50;;;;;;;;;;4977794;28;20523;-80
2022/09/16 12:31:25;;;;;;;4.28;0.73;;;;;;;;;;4967186;28;20171;-80
2022/09/16 12:34:00;;;;;;;5.28;0.80;;;;;;;;;;4983674;28;20038;-78
2022/09/16 12:36:33;;;;;;;3.53;0.50;;;;;;;;;;4981988;28;20076;-80
2022/09/16 12:38:58;;;;;;;4.47;0.60;;;;;;;;;;4969829;28;20496;-81
2022/09/16 12:42:12;;;;;;;2.95;0.43;;;;;;;;;;4989959;28;20068;-80
2022/09/16 12:45:04;;;;;;;3.42;0.50;;;;;;;;;;4977346;28;20036;-79
2022/09/16 12:47:49;;;;;;;5.20;0.30;;;;;;;;;;5004171;28;20034;-82
2022/09/16 12:50:24;;;;;;;4.03;0.60;;;;;;;;;;4990183;28;20034;-79
2022/09/16 12:53:17;;;;;;;3.78;0.50;;;;;;;;;;5007833;28;20107;-79
2022/09/16 12:55:55;;;;;;;3.40;0.68;;;;;;;;;;5009841;28;20041;-79
2022/09/16 12:58:41;;;;;;;6.97;1.00;;;;;;;;;;5000193;28;20153;-80
2022/09/16 13:01:17;;;;;;;3.00;0.50;;;;;;;;;;5011415;28;20034;-82
2022/09/16 13:03:48;;;;;;;5.40;0.57;;;;;;;;;;4992117;28;20033;-81
2022/09/16 13:06:26;;;;;;;4.72;0.68;;;;;;;;;;5003385;28;20133;-82
2022/09/16 13:08:53;;;;;;;4.75;0.55;;;;;;;;;;4968820;28;20038;-81
2022/09/16 13:11:28;;;;;;;5.50;0.60;;;;;;;;;;4987080;28;20045;-83
2022/09/16 13:13:58;;;;;;;3.28;0.40;;;;;;;;;;4966233;28;20092;-82
2022/09/16 13:16:51;;;;;;;4.75;0.55;;;;;;;;;;4994488;28;20108;-83
2022/09/16 13:19:34;;;;;;;1.75;0.35;;;;;;;;;;4987342;28;20515;-82
2022/09/16 13:22:18;;;;;;;5.32;0.60;;;;;;;;;;5010029;28;20088;-82
2022/09/16 13:24:52;;;;;;;2.25;0.30;;;;;;;;;;4995023;28;20114;-82
2022/09/16 13:27:33;;;;;;;3.58;0.40;;;;;;;;;;4999275;28;20400;-83
2022/09/16 13:30:07;;;;;;;3.53;0.63;;;;;;;;;;4982821;28;20030;-82
2022/09/16 13:32:37;;;;;;;2.35;0.45;;;;;;;;;;5001920;28;20121;-82
2022/09/16 13:35:17;;;;;;;2.97;0.47;;;;;;;;;;4996250;28;20425;-82
2022/09/16 13:37:44;;;;;;;6.45;0.70;;;;;;;;;;4997335;28;20054;-79
2022/09/16 13:40:36;;;;;;;2.92;0.47;;;;;;;;;;4996012;28;20041;-81
2022/09/16 13:43:07;;;;;;;3.55;0.40;;;;;;;;;;4966860;28;20029;-79
2022/09/16 13:45:39;;;;;;;3.65;0.40;;;;;;;;;;4977761;28;20065;-79
2022/09/16 13:48:13;;;;;;;3.28;0.80;;;;;;;;;;4986387;28;20065;-79
2022/09/16 13:50:42;;;;;;;4.68;0.60;;;;;;;;;;4996957;28;20033;-78
2022/09/16 13:53:25;;;;;;;3.10;0.60;;;;;;;;;;4979127;28;20034;-79
2022/09/16 13:55:55;;;;;;;3.40;0.40;;;;;;;;;;4976251;28;20493;-78
2022/09/16 13:58:28;;;;;;;3.75;0.60;;;;;;;;;;4968443;28;20132;-79
2022/09/16 14:01:03;;;;;;;2.28;0.43;;;;;;;;;;4996449;28;20030;-80
2022/09/16 14:04:12;;;;;;;3.80;0.40;;;;;;;;;;4972097;28;20042;-78
2022/09/16 14:06:45;;;;;;;1.85;0.50;;;;;;;;;;4913717;29;20047;-78
2022/09/16 14:09:38;;;;;;;2.40;0.40;;;;;;;;;;4898705;29;20113;-77
2022/09/16 14:12:21;;;;;;;2.10;0.40;;;;;;;;;;4927019;29;20126;-77
2022/09/16 14:14:47;;;;;;;2.55;0.40;;;;;;;;;;4929675;29;20040;-79
2022/09/16 14:17:27;;;;;;;3.22;0.50;;;;;;;;;;4907756;29;20566;-79
2022/09/16 14:19:57;;;;;;;4.40;0.50;;;;;;;;;;4926487;29;20090;-79
2022/09/16 14:22:25;;;;;;;3.30;0.55;;;;;;;;;;4889364;29;20071;-79
2022/09/16 14:24:51;;;;;;;1.88;0.40;;;;;;;;;;4921442;29;20424;-79
2022/09/16 14:27:20;;;;;;;3.17;0.50;;;;;;;;;;4901464;29;20043;-78
2022/09/16 14:29:58;;;;;;;1.77;0.40;;;;;;;;;;4929698;29;20066;-79
2022/09/16 14:32:27;;;;;;;3.25;0.73;;;;;;;;;;4912192;29;20050;-79
2022/09/16 14:35:00;;;;;;;3.10;0.65;;;;;;;;;;4897435;29;20035;-79
2022/09/16 14:37:28;;;;;;;2.25;0.43;;;;;;;;;;4929410;29;20040;-78
2022/09/16 14:39:56;;;;;;;3.58;0.57;;;;;;;;;;4930483;29;20420;-78
2022/09/16 14:42:22;;;;;;;3.10;0.40;;;;;;;;;;4897399;29;20043;-79
2022/09/16 14:44:53;;;;;;;3.05;0.40;;;;;;;;;;5000688;28;20121;-78
2022/09/16 14:47:38;;;;;;;4.28;0.70;;;;;;;;;;4993222;28;20436;-79
2022/09/16 14:50:07;;;;;;;4.25;0.60;;;;;;;;;;4984505;28;20026;-78
2022/09/16 14:52:34;;;;;;;4.28;0.63;;;;;;;;;;4972723;28;20042;-81
2022/09/16 14:55:00;;;;;;;2.73;0.43;;;;;;;;;;4988760;28;20527;-81
2022/09/16 14:57:28;;;;;;;3.80;0.73;;;;;;;;;;4959934;28;20070;-81
2022/09/16 14:59:56;;;;;;;4.03;0.95;;;;;;;;;;4998798;28;20037;-82
2022/09/16 15:02:33;;;;;;;2.72;0.45;;;;;;;;;;4986494;28;20389;-82
2022/09/16 15:05:25;;;;;;;2.42;0.40;;;;;;;;;;4975783;28;20099;-82
2022/09/16 15:07:53;;;;;;;3.30;0.50;;;;;;;;;;4999208;28;20066;-81
2022/09/16 15:10:27;;;;;;;5.50;0.70;;;;;;;;;;4981277;28;20049;-81
2022/09/16 15:12:56;;;;;;;3.42;0.52;;;;;;;;;;4988986;28;20085;-80
2022/09/16 15:15:25;;;;;;;4.22;0.70;;;;;;;;;;4965944;28;20125;-82
2022/09/16 15:17:58;;;;;;;3.80;0.60;;;;;;;;;;4979493;28;20035;-82
2022/09/16 15:20:27;;;;;;;2.55;0.50;;;;;;;;;;4993260;28;20046;-80
2022/09/16 15:22:53;;;;;;;2.55;0.50;;;;;;;;;;5009874;28;20124;-80
2022/09/16 15:25:22;;;;;;;3.22;0.40;;;;;;;;;;4967099;28;20616;-82